Time;durP1;ratioP1;P1;durP2;ratioP2;P2;SDS_P1;SDS_P2;PMS_P1;PMS_P2;Temp;Humidity;BMP_temperature;BMP_pressure;BME280_temperature;BME280_humidity;BME280_pressure;Samples;Min_cycle;Max_cycle;Signal;HPM_P1;HPM_P2
2021/11/07 00:04:49;;;;;;;8.60;4.50;;;10.70;99.90;;;;;;5014703;28;20191;-81
2021/11/07 00:07:25;;;;;;;13.00;4.93;;;10.60;99.90;;;;;;5019393;28;20188;-81
2021/11/07 00:12:20;;;;;;;10.93;5.00;;;10.60;99.90;;;;;;5011096;28;20600;-80
2021/11/07 00:14:48;;;;;;;9.67;5.13;;;10.70;99.90;;;;;;5013697;28;20185;-80
2021/11/07 00:17:17;;;;;;;9.23;5.47;;;10.60;99.90;;;;;;4994505;28;20276;-80
2021/11/07 00:19:47;;;;;;;11.10;5.93;;;10.60;99.90;;;;;;5013029;28;20192;-80
2021/11/07 00:25:37;;;;;;;7.73;5.00;;;10.70;99.90;;;;;;5010784;28;20212;-81
2021/11/07 00:27:42;;;;;;;11.87;5.50;;;10.70;99.90;;;;;;5007383;28;20215;-80
2021/11/07 00:33:22;;;;;;;11.57;5.97;;;10.70;99.90;;;;;;5004439;28;20219;-81
2021/11/07 00:38:22;;;;;;;10.63;5.93;;;10.50;99.90;;;;;;5008927;28;20288;-80
2021/11/07 00:41:10;;;;;;;10.53;5.80;;;10.60;99.90;;;;;;5001715;28;20258;-81
2021/11/07 00:43:44;;;;;;;9.70;6.80;;;10.50;99.90;;;;;;5008020;28;20176;-80
2021/11/07 00:46:46;;;;;;;13.30;6.80;;;10.40;99.90;;;;;;5010012;28;20272;-80
2021/11/07 00:49:12;;;;;;;12.87;8.47;;;10.30;99.90;;;;;;4999906;28;20191;-80
2021/11/07 00:54:29;;;;;;;11.53;7.33;;;10.40;99.90;;;;;;5001165;28;20723;-81
2021/11/07 00:56:58;;;;;;;11.67;7.70;;;10.40;99.90;;;;;;5008129;28;20177;-81
2021/11/07 01:00:11;;;;;;;12.20;8.77;;;10.40;99.90;;;;;;4993113;28;20190;-80
2021/11/07 01:02:38;;;;;;;11.50;8.63;;;10.40;99.90;;;;;;4993061;28;20692;-79
2021/11/07 01:05:26;;;;;;;13.70;9.63;;;10.40;99.90;;;;;;5000162;28;20246;-81
2021/11/07 01:07:53;;;;;;;15.40;8.60;;;10.40;99.90;;;;;;5006734;28;20300;-81
2021/11/07 01:10:19;;;;;;;13.63;8.83;;;10.30;99.90;;;;;;5009682;28;20181;-81
2021/11/07 01:12:45;;;;;;;16.67;10.37;;;10.30;99.90;;;;;;5010935;28;20178;-81
2021/11/07 01:15:12;;;;;;;17.97;9.63;;;10.30;99.90;;;;;;5016422;28;20177;-81
2021/11/07 01:17:38;;;;;;;17.13;10.30;;;10.30;99.90;;;;;;5015531;28;20658;-81
2021/11/07 01:20:05;;;;;;;19.60;10.37;;;10.30;99.90;;;;;;5017972;28;20211;-81
2021/11/07 01:25:15;;;;;;;18.57;11.33;;;10.50;99.90;;;;;;5016863;28;20251;-80
2021/11/07 01:27:43;;;;;;;29.93;14.70;;;10.50;99.90;;;;;;5018205;28;20193;-81
2021/11/07 01:30:18;;;;;;;31.13;16.33;;;10.60;99.90;;;;;;5018525;28;20224;-80
2021/11/07 01:32:49;;;;;;;16.17;10.13;;;10.50;99.90;;;;;;5021707;28;20191;-80
2021/11/07 01:35:26;;;;;;;15.10;11.13;;;10.70;99.90;;;;;;5021958;28;20237;-81
2021/11/07 01:38:39;;;;;;;37.37;18.27;;;10.60;99.90;;;;;;5016074;28;20268;-93
2021/11/07 01:41:17;;;;;;;45.87;22.80;;;10.70;99.90;;;;;;4995899;28;20213;-93
2021/11/07 01:43:44;;;;;;;41.93;19.37;;;10.60;99.90;;;;;;4996581;28;20263;-94
2021/11/07 01:48:53;;;;;;;15.40;11.17;;;10.40;99.90;;;;;;5023063;28;20188;-93
2021/11/07 01:51:23;;;;;;;18.10;10.60;;;10.50;99.90;;;;;;4999959;28;20293;-93
2021/11/07 01:54:03;;;;;;;;;;;;;;;;;;;;;
2021/11/07 01:56:32;;;;;;;17.60;10.93;;;10.50;99.90;;;;;;5014714;28;20195;-92
2021/11/07 01:58:58;;;;;;;12.10;10.17;;;10.40;99.90;;;;;;4994714;28;20244;-92
2021/11/07 02:01:31;;;;;;;16.90;10.00;;;10.40;99.90;;;;;;4987205;28;20221;-93
2021/11/07 02:04:22;;;;;;;14.67;10.93;;;10.40;99.90;;;;;;4988459;28;20185;-94
2021/11/07 02:06:56;;;;;;;14.20;10.33;;;10.30;99.90;;;;;;4996969;28;20183;-93
2021/11/07 02:09:43;;;;;;;14.50;11.27;;;10.30;99.90;;;;;;4981908;28;20643;-93
2021/11/07 02:12:18;;;;;;;17.77;11.37;;;10.40;99.90;;;;;;4991395;28;20184;-92
2021/11/07 02:14:58;;;;;;;18.60;12.17;;;10.50;99.90;;;;;;4988666;28;20655;-92
2021/11/07 02:17:27;;;;;;;15.97;11.57;;;10.40;99.90;;;;;;4995504;28;20196;-93
2021/11/07 02:19:58;;;;;;;14.70;10.90;;;10.50;99.90;;;;;;4994243;28;20172;-93
2021/11/07 02:22:30;;;;;;;14.03;10.77;;;10.50;99.90;;;;;;5009053;28;20217;-93
2021/11/07 02:25:22;;;;;;;15.10;11.73;;;10.60;99.90;;;;;;4990018;28;20564;-93
2021/11/07 02:28:04;;;;;;;16.13;11.57;;;10.60;99.90;;;;;;5002017;28;20505;-93
2021/11/07 02:30:56;;;;;;;14.80;12.17;;;10.60;99.90;;;;;;4998338;28;20184;-93
2021/11/07 02:33:23;;;;;;;15.70;11.90;;;10.70;99.90;;;;;;5005608;28;20598;-93
2021/11/07 02:35:49;;;;;;;15.10;11.90;;;10.60;99.90;;;;;;4985405;28;20680;-94
2021/11/07 02:38:15;;;;;;;16.93;11.63;;;10.60;99.90;;;;;;4990663;28;20189;-93
2021/11/07 02:40:44;;;;;;;14.87;11.00;;;10.60;99.90;;;;;;4978675;28;20209;-93
2021/11/07 02:43:35;;;;;;;14.40;10.40;;;10.50;99.90;;;;;;4985698;28;20173;-93
2021/11/07 02:46:15;;;;;;;;;;;;;;;;;;;;;
2021/11/07 02:49:05;;;;;;;14.27;10.40;;;10.60;99.90;;;;;;5016279;28;20246;-94
2021/11/07 02:51:35;;;;;;;14.13;10.40;;;10.60;99.90;;;;;;4998186;28;20213;-94
2021/11/07 02:54:31;;;;;;;;;;;;;;;;;;;;;
2021/11/07 02:57:17;;;;;;;12.50;10.20;;;10.50;99.90;;;;;;4996102;28;20182;-93
2021/11/07 02:59:56;;;;;;;12.73;10.07;;;10.50;99.90;;;;;;4991676;28;20201;-94
2021/11/07 03:02:41;;;;;;;12.13;10.17;;;10.60;99.90;;;;;;4978501;28;20224;-93
2021/11/07 03:05:31;;;;;;;13.23;10.70;;;10.50;99.90;;;;;;4996450;28;20181;-94
2021/11/07 03:10:55;;;;;;;15.93;11.20;;;10.70;99.90;;;;;;5006068;28;20272;-93
2021/11/07 03:13:53;;;;;;;17.00;11.47;;;10.50;99.90;;;;;;4991191;28;20190;-93
2021/11/07 03:19:27;;;;;;;14.77;11.07;;;10.50;99.90;;;;;;5015327;28;20556;-93
2021/11/07 03:22:29;;;;;;;14.00;10.53;;;10.70;99.90;;;;;;4997692;28;20215;-93
2021/11/07 03:25:05;;;;;;;16.60;11.20;;;10.60;99.90;;;;;;5011147;28;20184;-93
2021/11/07 03:27:38;;;;;;;14.87;11.37;;;10.50;99.90;;;;;;4984264;28;20197;-93
2021/11/07 03:35:55;;;;;;;14.57;10.77;;;10.60;99.90;;;;;;5015283;28;20217;-93
2021/11/07 03:38:36;;;;;;;15.93;11.90;;;10.60;99.90;;;;;;4997314;28;20181;-93
2021/11/07 03:41:13;;;;;;;13.07;11.63;;;10.60;99.90;;;;;;4986285;28;20218;-93
2021/11/07 03:43:58;;;;;;;;;;;;;;;;;;;;;
2021/11/07 03:46:34;;;;;;;13.00;11.60;;;10.70;99.90;;;;;;4991357;28;20180;-93
2021/11/07 03:49:21;;;;;;;14.03;10.80;;;10.70;99.90;;;;;;4984114;28;20195;-93
2021/11/07 03:52:10;;;;;;;14.07;10.63;;;10.70;99.90;;;;;;4992667;28;20182;-93
2021/11/07 03:54:57;;;;;;;;;;;;;;;;;;;;;
2021/11/07 03:57:37;;;;;;;13.13;9.97;;;10.80;99.90;;;;;;4990668;28;20182;-93
2021/11/07 04:00:10;;;;;;;11.23;9.70;;;10.90;99.90;;;;;;4976913;28;20634;-93
2021/11/07 04:02:36;;;;;;;11.57;9.90;;;11.00;99.90;;;;;;4975077;28;20246;-93
2021/11/07 04:05:15;;;;;;;;;;;;;;;;;;;;;
2021/11/07 04:07:51;;;;;;;10.37;9.27;;;10.90;99.90;;;;;;4999665;28;20605;-93
2021/11/07 04:10:43;;;;;;;10.77;9.50;;;10.90;99.90;;;;;;4977616;28;20231;-93
2021/11/07 04:13:17;;;;;;;10.77;9.37;;;10.80;99.90;;;;;;4977930;28;20280;-93
2021/11/07 04:16:10;;;;;;;13.10;9.53;;;10.80;99.90;;;;;;4983027;28;20288;-93
2021/11/07 04:18:43;;;;;;;10.93;9.20;;;10.80;99.90;;;;;;4974926;28;20251;-93
2021/11/07 04:21:11;;;;;;;11.67;8.93;;;10.80;99.90;;;;;;4973480;28;20602;-92
2021/11/07 04:23:57;;;;;;;12.10;9.23;;;10.80;99.90;;;;;;4990865;28;20166;-93
2021/11/07 04:26:28;;;;;;;9.40;8.40;;;10.90;99.90;;;;;;4972110;28;20240;-93
2021/11/07 04:28:59;;;;;;;14.10;9.07;;;11.10;99.90;;;;;;4977291;28;20186;-93
2021/11/07 04:31:47;;;;;;;11.97;9.10;;;11.00;99.90;;;;;;4974315;28;20654;-93
2021/11/07 04:34:59;;;;;;;;;;;;;;;;;;;;;
2021/11/07 04:37:48;;;;;;;;;;;;;;;;;;;;;
2021/11/07 04:40:54;;;;;;;;;;;;;;;;;;;;;
2021/11/07 04:43:27;;;;;;;12.93;9.03;;;11.20;99.90;;;;;;5008975;28;20185;-93
2021/11/07 04:46:13;;;;;;;13.80;9.93;;;11.20;99.90;;;;;;4993671;28;20184;-93
2021/11/07 04:49:20;;;;;;;12.60;10.20;;;11.20;99.90;;;;;;4990291;28;20207;-94
2021/11/07 04:51:53;;;;;;;14.17;9.87;;;11.20;99.90;;;;;;5000606;28;20181;-93
2021/11/07 04:54:57;;;;;;;11.97;10.13;;;11.20;99.90;;;;;;4992914;28;20266;-94
2021/11/07 05:01:10;;;;;;;;;;;;;;;;;;;;;
2021/11/07 05:03:52;;;;;;;;;;;;;;;;;;;;;
2021/11/07 05:06:33;;;;;;;13.13;10.10;;;11.20;99.90;;;;;;5013726;28;20181;-93
2021/11/07 05:09:30;;;;;;;14.00;10.77;;;11.20;99.90;;;;;;4996277;28;20177;-93
2021/11/07 05:12:22;;;;;;;13.40;10.57;;;11.30;99.90;;;;;;4990484;28;20251;-93
2021/11/07 05:14:57;;;;;;;14.80;10.50;;;11.30;99.90;;;;;;4993994;28;20265;-94
2021/11/07 05:17:49;;;;;;;13.67;10.63;;;11.30;99.90;;;;;;4987966;28;20228;-93
2021/11/07 05:20:37;;;;;;;14.03;11.47;;;11.20;99.90;;;;;;4992997;28;20548;-93
2021/11/07 05:23:14;;;;;;;;;;;;;;;;;;;;;
2021/11/07 05:25:51;;;;;;;;;;;;;;;;;;;;;
2021/11/07 05:28:29;;;;;;;15.17;11.37;;;11.40;99.90;;;;;;5015490;28;20180;-93
2021/11/07 05:31:07;;;;;;;15.07;10.90;;;11.40;99.90;;;;;;4975791;28;20177;-94
2021/11/07 05:34:01;;;;;;;;;;;;;;;;;;;;;
2021/11/07 05:36:37;;;;;;;;;;;;;;;;;;;;;
2021/11/07 05:39:20;;;;;;;17.17;11.20;;;11.50;99.90;;;;;;5013635;28;20657;-94
2021/11/07 05:42:17;;;;;;;;;;;;;;;;;;;;;
2021/11/07 05:45:10;;;;;;;17.53;11.77;;;11.60;99.90;;;;;;5008946;28;20178;-93
2021/11/07 05:47:41;;;;;;;15.50;11.63;;;11.70;99.90;;;;;;4986681;28;20226;-93
2021/11/07 05:50:21;;;;;;;17.97;11.47;;;11.60;99.90;;;;;;4995811;28;20195;-93
2021/11/07 05:53:09;;;;;;;;;;;;;;;;;;;;;
2021/11/07 05:55:58;;;;;;;18.73;11.73;;;11.70;99.90;;;;;;5010727;28;20538;-93
2021/11/07 05:58:43;;;;;;;16.93;11.13;;;11.70;99.90;;;;;;4982399;28;20199;-93
2021/11/07 06:01:30;;;;;;;16.33;11.57;;;11.70;99.90;;;;;;4997850;28;20232;-93
2021/11/07 06:04:07;;;;;;;18.50;11.33;;;11.80;99.90;;;;;;4999540;28;20735;-94
2021/11/07 06:06:47;;;;;;;15.13;12.03;;;11.70;99.90;;;;;;4994721;28;20190;-94
2021/11/07 06:09:25;;;;;;;;;;;;;;;;;;;;;
2021/11/07 06:12:14;;;;;;;;;;;;;;;;;;;;;
2021/11/07 06:15:08;;;;;;;;;;;;;;;;;;;;;
2021/11/07 06:17:57;;;;;;;;;;;;;;;;;;;;;
2021/11/07 06:20:42;;;;;;;17.57;11.90;;;12.00;99.90;;;;;;5011715;28;20178;-93
2021/11/07 06:24:10;;;;;;;;;;;;;;;;;;;;;
2021/11/07 06:30:19;;;;;;;17.10;11.90;;;11.90;99.90;;;;;;4978659;28;20201;-93
2021/11/07 06:32:55;;;;;;;;;;;;;;;;;;;;;
2021/11/07 06:39:46;;;;;;;;;;;;;;;;;;;;;
2021/11/07 06:46:33;;;;;;;;;;;;;;;;;;;;;
2021/11/07 06:56:06;;;;;;;16.23;11.57;;;11.90;99.90;;;;;;4917468;29;20212;-93
2021/11/07 07:03:38;;;;;;;;;;;;;;;;;;;;;
2021/11/07 07:21:05;;;;;;;;;;;;;;;;;;;;;
2021/11/07 07:41:04;;;;;;;18.30;11.43;;;12.30;99.90;;;;;;5023908;28;20707;-94
2021/11/07 07:44:21;;;;;;;15.17;11.03;;;12.30;99.90;;;;;;5026157;28;20283;-93
2021/11/07 07:55:08;;;;;;;;;;;;;;;;;;;;;
2021/11/07 08:01:52;;;;;;;;;;;;;;;;;;;;;
2021/11/07 08:11:24;;;;;;;18.77;8.50;;;12.20;99.90;;;;;;4949153;28;20189;-93
2021/11/07 08:15:05;;;;;;;;;;;;;;;;;;;;;
2021/11/07 08:21:40;;;;;;;;;;;;;;;;;;;;;
2021/11/07 08:28:22;;;;;;;;;;;;;;;;;;;;;
2021/11/07 08:39:02;;;;;;;;;;;;;;;;;;;;;
2021/11/07 09:00:41;;;;;;;;;;;;;;;;;;;;;
2021/11/07 09:15:53;;;;;;;9.03;2.03;;;13.00;99.90;;;;;;4846924;29;20183;-94
2021/11/07 09:19:09;;;;;;;;;;;;;;;;;;;;;
2021/11/07 09:54:05;;;;;;;;;;;;;;;;;;;;;
2021/11/07 10:00:42;;;;;;;12.77;2.47;;;13.30;99.90;;;;;;4893941;29;20300;-93
2021/11/07 10:03:50;;;;;;;13.50;2.53;;;13.40;99.90;;;;;;4902608;29;20215;-94
2021/11/07 10:25:55;;;;;;;;;;;;;;;;;;;;;
2021/11/07 10:32:47;;;;;;;;;;;;;;;;;;;;;
2021/11/07 10:44:06;;;;;;;;;;;;;;;;;;;;;
2021/11/07 10:54:13;;;;;;;14.47;1.87;;;14.90;99.90;;;;;;4662296;30;20204;-83
2021/11/07 10:56:39;;;;;;;12.13;2.63;;;14.20;99.90;;;;;;4820369;29;20218;-83
2021/11/07 10:59:17;;;;;;;12.20;2.63;;;14.10;99.90;;;;;;4955475;28;20206;-81
2021/11/07 11:01:44;;;;;;;11.77;2.10;;;14.20;99.90;;;;;;4994175;28;20253;-81
2021/11/07 11:04:11;;;;;;;13.67;3.00;;;14.20;99.90;;;;;;4990308;28;20267;-81
2021/11/07 11:06:39;;;;;;;9.53;2.60;;;14.40;99.90;;;;;;4996595;28;20181;-81
2021/11/07 11:09:17;;;;;;;10.87;1.97;;;14.40;99.90;;;;;;5007599;28;20181;-81
2021/11/07 11:11:48;;;;;;;14.60;2.63;;;14.20;99.90;;;;;;4994229;28;20319;-81
2021/11/07 11:14:21;;;;;;;12.17;2.17;;;13.90;99.90;;;;;;4991221;28;20215;-80
2021/11/07 11:29:51;;;;;;;16.17;2.70;;;13.60;99.90;;;;;;5014437;28;20629;-82
2021/11/07 11:32:30;;;;;;;10.97;2.53;;;13.50;99.90;;;;;;4996555;28;20263;-82
2021/11/07 11:35:02;;;;;;;18.17;2.83;;;13.50;99.90;;;;;;4996556;28;20193;-82
2021/11/07 11:40:02;;;;;;;11.57;2.53;;;13.20;99.90;;;;;;5014094;28;20173;-81
2021/11/07 11:42:39;;;;;;;14.43;2.67;;;13.40;99.90;;;;;;5013640;28;20208;-81
2021/11/07 11:45:05;;;;;;;13.73;2.30;;;13.40;99.90;;;;;;4997375;28;20237;-81
2021/11/07 11:57:33;;;;;;;12.77;2.43;;;13.60;99.90;;;;;;4952869;28;20679;-82
2021/11/07 12:05:41;;;;;;;18.50;2.80;;;13.40;99.90;;;;;;5011956;28;20641;-82
2021/11/07 12:08:16;;;;;;;14.80;2.20;;;13.50;99.90;;;;;;5001120;28;20185;-82
2021/11/07 12:10:49;;;;;;;16.23;2.83;;;13.50;99.90;;;;;;4986166;28;20182;-82
2021/11/07 12:13:52;;;;;;;13.23;2.50;;;13.70;99.90;;;;;;5009754;28;20173;-81
2021/11/07 12:16:57;;;;;;;12.33;2.93;;;13.90;99.90;;;;;;4992957;28;20481;-81
2021/11/07 12:19:35;;;;;;;11.07;2.73;;;14.40;99.90;;;;;;4989757;28;20185;-80
2021/11/07 12:22:25;;;;;;;12.03;2.23;;;14.40;99.90;;;;;;5010557;28;20214;-82
2021/11/07 12:24:51;;;;;;;13.73;2.53;;;14.40;99.90;;;;;;5002045;28;20236;-82
2021/11/07 12:27:42;;;;;;;15.63;3.17;;;14.40;99.90;;;;;;5006355;28;20188;-81
2021/11/07 12:30:10;;;;;;;13.60;2.67;;;14.60;99.90;;;;;;5012768;28;20189;-82
2021/11/07 12:32:38;;;;;;;12.17;2.33;;;14.60;99.90;;;;;;4991552;28;20199;-82
2021/11/07 12:40:45;;;;;;;12.90;2.80;;;14.10;99.90;;;;;;5012764;28;20196;-81
2021/11/07 12:43:34;;;;;;;16.80;2.57;;;13.90;99.90;;;;;;4988855;28;20194;-82
2021/11/07 12:46:56;;;;;;;15.20;2.80;;;13.50;99.90;;;;;;4978760;28;20720;-81
2021/11/07 12:49:29;;;;;;;10.80;2.47;;;13.40;99.90;;;;;;4964968;28;20613;-82
2021/11/07 12:52:12;;;;;;;13.87;2.90;;;13.20;99.90;;;;;;5012505;28;20599;-81
2021/11/07 12:54:40;;;;;;;13.87;2.40;;;13.10;99.90;;;;;;5007471;28;20264;-82
2021/11/07 12:57:11;;;;;;;15.70;2.93;;;13.20;99.90;;;;;;4989043;28;20284;-81
2021/11/07 12:59:43;;;;;;;17.93;3.83;;;13.20;99.90;;;;;;4995681;28;20205;-82
2021/11/07 13:02:23;;;;;;;14.83;3.10;;;13.30;99.90;;;;;;5012116;28;20233;-81
2021/11/07 13:04:56;;;;;;;15.43;2.40;;;13.40;99.90;;;;;;4994453;28;20553;-81
2021/11/07 13:07:45;;;;;;;18.97;3.40;;;13.50;99.90;;;;;;5010671;28;20193;-81
2021/11/07 13:11:12;;;;;;;6.80;2.10;;;13.40;99.90;;;;;;4986580;28;20185;-81
2021/11/07 13:13:44;;;;;;;13.97;2.50;;;13.60;99.90;;;;;;5003420;28;20189;-81
2021/11/07 13:35:08;;;;;;;16.27;3.10;;;13.50;99.90;;;;;;5003666;28;20181;-81
2021/11/07 13:37:50;;;;;;;12.83;2.83;;;13.30;99.90;;;;;;4998567;28;20232;-81
2021/11/07 13:40:24;;;;;;;15.33;2.57;;;13.50;99.90;;;;;;5015747;28;20223;-81
2021/11/07 13:42:51;;;;;;;19.30;3.20;;;13.50;99.90;;;;;;5010978;28;20312;-80
2021/11/07 13:45:22;;;;;;;18.73;3.00;;;13.50;99.90;;;;;;5013479;28;20181;-81
2021/11/07 13:47:49;;;;;;;16.90;3.10;;;13.50;99.90;;;;;;5015101;28;20264;-81
2021/11/07 13:50:20;;;;;;;18.67;3.00;;;13.40;99.90;;;;;;4998111;28;20204;-81
2021/11/07 13:52:46;;;;;;;17.37;2.93;;;13.50;99.90;;;;;;4992295;28;20189;-81
2021/11/07 13:55:32;;;;;;;18.07;3.23;;;13.60;99.90;;;;;;5013195;28;20641;-81
2021/11/07 13:58:13;;;;;;;16.53;3.03;;;13.50;99.90;;;;;;5015223;28;20193;-81
2021/11/07 14:00:40;;;;;;;17.17;3.13;;;13.60;99.90;;;;;;5015200;28;20205;-80
2021/11/07 14:03:11;;;;;;;12.67;2.70;;;13.80;99.90;;;;;;5007293;28;20621;-81
2021/11/07 14:05:40;;;;;;;15.77;3.13;;;13.90;99.90;;;;;;5015759;28;20185;-81
2021/11/07 14:08:06;;;;;;;16.17;3.47;;;14.00;99.90;;;;;;5016132;28;20185;-81
2021/11/07 14:10:35;;;;;;;14.70;2.77;;;14.00;99.90;;;;;;4997620;28;20177;-81
2021/11/07 14:13:12;;;;;;;15.53;2.90;;;14.10;99.90;;;;;;5015488;28;20194;-82
2021/11/07 14:15:43;;;;;;;12.17;2.70;;;14.30;99.90;;;;;;4997910;28;20652;-80
2021/11/07 14:18:17;;;;;;;18.43;3.57;;;14.20;99.90;;;;;;5015251;28;20553;-81
2021/11/07 14:21:05;;;;;;;15.43;2.70;;;14.10;99.90;;;;;;4989433;28;20188;-81
2021/11/07 14:23:50;;;;;;;12.40;3.17;;;13.90;99.90;;;;;;4994155;28;20198;-81
2021/11/07 14:26:37;;;;;;;11.63;2.67;;;13.80;99.90;;;;;;5014994;28;20185;-81
2021/11/07 14:29:34;;;;;;;11.90;2.70;;;13.60;99.90;;;;;;4994178;28;20251;-95
2021/11/07 16:12:38;;;;;;;16.60;3.77;;;12.50;99.90;;;;;;5826993;22;20302;-80
2021/11/07 16:17:32;;;;;;;18.10;3.63;;;12.40;99.90;;;;;;5032913;28;20280;-80
2021/11/07 16:20:00;;;;;;;20.57;4.80;;;12.40;99.90;;;;;;5032855;28;20169;-80
2021/11/07 16:22:27;;;;;;;19.20;3.93;;;12.40;99.90;;;;;;5032996;28;20212;-79
2021/11/07 16:24:54;;;;;;;20.20;4.30;;;12.40;99.90;;;;;;5032886;28;20184;-80
2021/11/07 16:27:21;;;;;;;15.57;3.13;;;12.40;99.90;;;;;;5032668;28;20192;-80
2021/11/07 16:29:51;;;;;;;19.27;3.97;;;12.20;99.90;;;;;;5033052;28;20179;-80
2021/11/07 16:32:24;;;;;;;20.43;4.93;;;12.20;99.90;;;;;;5032500;28;20596;-80
2021/11/07 16:37:21;;;;;;;21.97;4.40;;;12.30;99.90;;;;;;5018851;28;20192;-79
2021/11/07 16:39:59;;;;;;;22.60;4.20;;;12.20;99.90;;;;;;5002256;28;20184;-80
2021/11/07 16:42:25;;;;;;;20.90;4.07;;;12.10;99.90;;;;;;5028716;28;20226;-79
2021/11/07 16:44:51;;;;;;;24.10;4.23;;;12.00;99.90;;;;;;5028503;28;20284;-80
2021/11/07 16:47:23;;;;;;;15.53;4.00;;;12.00;99.90;;;;;;5032329;28;20221;-80
2021/11/07 16:49:50;;;;;;;18.77;4.40;;;12.00;99.90;;;;;;5032390;28;20182;-81
2021/11/07 16:52:19;;;;;;;22.63;4.60;;;12.10;99.90;;;;;;5032276;28;20187;-80
2021/11/07 16:54:56;;;;;;;27.37;4.37;;;12.10;99.90;;;;;;5032171;28;20586;-80
2021/11/07 16:57:24;;;;;;;22.63;4.63;;;12.10;99.90;;;;;;5014243;28;20637;-80
2021/11/07 17:02:58;;;;;;;21.73;4.63;;;12.20;99.90;;;;;;5002173;28;20217;-80
2021/11/07 17:10:29;;;;;;;28.40;4.80;;;12.00;99.90;;;;;;5010083;28;20181;-82
2021/11/07 17:13:01;;;;;;;17.33;4.53;;;11.90;99.90;;;;;;5007705;28;20197;-82
2021/11/07 17:18:03;;;;;;;27.63;5.63;;;12.00;99.90;;;;;;5023055;28;20162;-78
2021/11/07 17:25:36;;;;;;;23.30;5.07;;;12.10;99.90;;;;;;5012000;28;20708;-81
2021/11/07 17:30:32;;;;;;;21.30;4.80;;;11.90;99.90;;;;;;5028813;28;20264;-83
2021/11/07 17:34:04;;;;;;;20.47;4.40;;;12.00;99.90;;;;;;4988179;28;20187;-81
2021/11/07 17:54:32;;;;;;;23.83;6.50;;;11.70;99.90;;;;;;5013274;28;20224;-80
2021/11/07 17:57:00;;;;;;;17.13;4.50;;;11.70;99.90;;;;;;5017255;28;20267;-80
2021/11/07 17:59:26;;;;;;;18.23;5.93;;;11.60;99.90;;;;;;4996372;28;20248;-80
2021/11/07 18:01:53;;;;;;;21.73;6.03;;;11.70;99.90;;;;;;5000130;28;20634;-80
2021/11/07 18:04:21;;;;;;;16.97;4.90;;;11.80;99.90;;;;;;5028059;28;20204;-78
2021/11/07 18:06:52;;;;;;;20.57;8.40;;;11.80;99.90;;;;;;5034968;28;20239;-80
2021/11/07 18:09:27;;;;;;;16.17;4.53;;;11.70;99.90;;;;;;5023299;28;20184;-80
2021/11/07 18:11:55;;;;;;;22.50;5.23;;;11.60;99.90;;;;;;5034100;28;20640;-81
2021/11/07 18:14:21;;;;;;;20.93;5.60;;;11.70;99.90;;;;;;5035282;28;20536;-80
2021/11/07 18:16:48;;;;;;;23.97;5.10;;;11.70;99.90;;;;;;5034661;28;20588;-80
2021/11/07 18:19:15;;;;;;;21.97;9.07;;;11.80;99.90;;;;;;5017795;28;20185;-81
2021/11/07 18:24:26;;;;;;;25.97;5.67;;;11.80;99.90;;;;;;5031095;28;20179;-81
2021/11/07 19:01:22;;;;;;;25.47;9.20;;;11.70;99.90;;;;;;5426012;23;20231;-81
2021/11/07 19:03:49;;;;;;;27.67;6.37;;;11.80;99.90;;;;;;5014987;28;20181;-81
2021/11/07 19:06:15;;;;;;;28.30;5.97;;;11.90;99.90;;;;;;5014239;28;20208;-77
2021/11/07 19:08:41;;;;;;;26.20;6.57;;;11.80;99.90;;;;;;5014197;28;20268;-80
2021/11/07 19:11:08;;;;;;;21.57;5.37;;;11.70;99.90;;;;;;5014969;28;20641;-80
2021/11/07 19:13:35;;;;;;;21.93;6.03;;;11.80;99.90;;;;;;4996711;28;20537;-80
2021/11/07 19:16:00;;;;;;;29.07;5.97;;;11.70;99.90;;;;;;5014950;28;20268;-81
2021/11/07 19:18:29;;;;;;;17.83;5.70;;;11.70;99.90;;;;;;4996761;28;20722;-81
2021/11/07 19:20:55;;;;;;;28.57;6.97;;;11.70;99.90;;;;;;5014533;28;20168;-81
2021/11/07 19:23:21;;;;;;;19.60;5.40;;;11.70;99.90;;;;;;5014313;28;20689;-81
2021/11/07 19:25:49;;;;;;;22.90;7.13;;;11.70;99.90;;;;;;4996916;28;20193;-80
2021/11/07 19:28:14;;;;;;;24.40;5.83;;;11.60;99.90;;;;;;5014485;28;20179;-79
2021/11/07 19:30:40;;;;;;;40.30;14.70;;;11.60;99.90;;;;;;5014247;28;20247;-81
2021/11/07 19:33:07;;;;;;;63.77;24.07;;;11.70;99.90;;;;;;5014422;28;20207;-81
2021/11/07 19:35:36;;;;;;;25.53;6.93;;;11.80;99.90;;;;;;5014124;28;20185;-80
2021/11/07 19:38:02;;;;;;;22.90;5.90;;;11.70;99.90;;;;;;5014234;28;20178;-80
2021/11/07 19:40:31;;;;;;;15.03;4.93;;;11.70;99.90;;;;;;5014171;28;20247;-81
2021/11/07 19:42:57;;;;;;;21.10;5.07;;;11.80;99.90;;;;;;5013817;28;20688;-80
2021/11/07 19:45:25;;;;;;;17.80;5.03;;;11.80;99.90;;;;;;5014119;28;20184;-79
2021/11/07 19:47:53;;;;;;;21.17;5.60;;;11.90;99.90;;;;;;5013525;28;20189;-79
2021/11/07 19:50:24;;;;;;;25.90;5.70;;;11.90;99.90;;;;;;5013913;28;20177;-80
2021/11/07 19:52:50;;;;;;;26.63;6.90;;;11.70;99.90;;;;;;5013684;28;20684;-80
2021/11/07 19:55:18;;;;;;;28.17;10.07;;;11.80;99.90;;;;;;4996384;28;20181;-81
2021/11/07 19:57:44;;;;;;;29.13;9.10;;;11.80;99.90;;;;;;5013627;28;20193;-80
2021/11/07 20:10:29;;;;;;;18.93;5.37;;;11.70;99.90;;;;;;5013819;28;20177;-79
2021/11/07 20:12:55;;;;;;;29.67;7.77;;;11.70;99.90;;;;;;5013779;28;20645;-80
2021/11/07 20:15:21;;;;;;;24.37;7.00;;;11.70;99.90;;;;;;5013646;28;20185;-80
2021/11/07 20:17:47;;;;;;;28.50;6.40;;;11.80;99.90;;;;;;5013908;28;20578;-81
2021/11/07 20:20:13;;;;;;;25.07;7.17;;;11.90;99.90;;;;;;5012347;28;20185;-80
2021/11/07 20:22:42;;;;;;;18.97;6.10;;;11.90;99.90;;;;;;5013593;28;20248;-80
2021/11/07 20:25:12;;;;;;;20.40;5.73;;;11.90;99.90;;;;;;5013356;28;20177;-80
2021/11/07 20:27:45;;;;;;;22.17;5.93;;;11.80;99.90;;;;;;4995750;28;20649;-80
2021/11/07 20:30:14;;;;;;;26.37;6.17;;;11.80;99.90;;;;;;5013269;28;20193;-80
2021/11/07 20:32:40;;;;;;;23.07;8.00;;;11.90;99.90;;;;;;5013169;28;20629;-80
2021/11/07 20:35:10;;;;;;;23.17;5.30;;;11.90;99.90;;;;;;5013032;28;20557;-80
2021/11/07 20:37:39;;;;;;;19.67;6.03;;;11.80;99.90;;;;;;5013211;28;20259;-81
2021/11/07 20:40:11;;;;;;;21.60;6.53;;;11.70;99.90;;;;;;5013057;28;20228;-80
2021/11/07 20:42:41;;;;;;;21.13;5.73;;;11.70;99.90;;;;;;5012798;28;20209;-80
2021/11/07 20:45:18;;;;;;;23.00;5.50;;;11.70;99.90;;;;;;5013147;28;20524;-80
2021/11/07 20:47:56;;;;;;;25.83;6.00;;;11.60;99.90;;;;;;5012386;28;20188;-76
2021/11/07 20:53:02;;;;;;;21.20;7.03;;;11.40;99.90;;;;;;5012823;28;20182;-81
2021/11/07 21:06:01;;;;;;;15.53;5.40;;;11.40;99.90;;;;;;5013145;28;20193;-79
2021/11/07 21:08:42;;;;;;;26.00;4.63;;;11.40;99.90;;;;;;5007152;28;20183;-80
2021/11/07 21:11:21;;;;;;;36.13;12.60;;;11.40;99.90;;;;;;5012894;28;20183;-79
2021/11/07 21:13:50;;;;;;;63.87;29.93;;;11.40;99.90;;;;;;5012807;28;20165;-80
2021/11/07 21:16:35;;;;;;;26.97;6.40;;;11.20;99.90;;;;;;5012885;28;20177;-80
2021/11/07 21:27:27;;;;;;;18.63;5.13;;;11.10;99.90;;;;;;5013072;28;20546;-80
2021/11/07 21:29:53;;;;;;;27.40;9.40;;;11.10;99.90;;;;;;5013073;28;20264;-80
2021/11/07 21:32:21;;;;;;;23.70;9.10;;;11.10;99.90;;;;;;5016299;28;20535;-80
2021/11/07 21:37:20;;;;;;;18.90;5.23;;;11.10;99.90;;;;;;5016747;28;20182;-80
2021/11/07 21:42:18;;;;;;;24.83;6.27;;;11.10;99.90;;;;;;5016400;28;20256;-80
2021/11/07 21:44:44;;;;;;;25.33;11.40;;;11.10;99.90;;;;;;5016212;28;20727;-80
2021/11/07 21:47:16;;;;;;;56.10;20.23;;;11.10;99.90;;;;;;5016188;28;20264;-80
2021/11/07 21:49:41;;;;;;;29.43;10.47;;;11.10;99.90;;;;;;5015868;28;20181;-81
2021/11/07 21:52:07;;;;;;;22.40;7.90;;;11.00;99.90;;;;;;5016369;28;20185;-80
2021/11/07 21:54:36;;;;;;;26.50;6.63;;;11.00;99.90;;;;;;5016079;28;20328;-80
2021/11/07 21:57:02;;;;;;;21.93;5.73;;;11.00;99.90;;;;;;5016184;28;20180;-80
2021/11/07 21:59:28;;;;;;;20.20;5.00;;;11.00;99.90;;;;;;5016072;28;20202;-79
2021/11/07 22:01:55;;;;;;;27.70;8.10;;;11.00;99.90;;;;;;5015538;28;20221;-80
2021/11/07 22:04:20;;;;;;;160.97;81.67;;;11.00;99.90;;;;;;5016266;28;20182;-80
2021/11/07 22:06:47;;;;;;;45.17;17.30;;;10.90;99.90;;;;;;5008938;28;20192;-80
2021/11/07 22:09:14;;;;;;;31.23;8.13;;;10.80;99.90;;;;;;5013991;28;20259;-80
2021/11/07 22:11:41;;;;;;;107.17;43.90;;;10.80;99.90;;;;;;4999776;28;20720;-79
2021/11/07 22:14:11;;;;;;;81.03;33.77;;;10.80;99.90;;;;;;5015359;28;20264;-80
2021/11/07 22:16:47;;;;;;;32.83;10.47;;;10.90;99.90;;;;;;5014226;28;20207;-78
2021/11/07 22:19:22;;;;;;;66.53;30.53;;;10.80;99.90;;;;;;5014407;28;20277;-80
2021/11/07 22:24:16;;;;;;;35.17;17.80;;;10.70;99.90;;;;;;5008614;28;20174;-81
2021/11/07 22:26:42;;;;;;;25.80;7.70;;;10.80;99.90;;;;;;5014333;28;20196;-80
2021/11/07 22:29:13;;;;;;;35.40;6.93;;;10.90;99.90;;;;;;5014596;28;20254;-80
2021/11/07 22:32:24;;;;;;;22.43;6.03;;;10.90;99.90;;;;;;5012087;28;20216;-79
2021/11/07 22:34:30;;;;;;;26.90;7.00;;;10.90;99.90;;;;;;4999382;28;20569;-79
2021/11/07 22:37:03;;;;;;;25.77;7.30;;;10.80;99.90;;;;;;5015009;28;20815;-81
2021/11/07 22:39:37;;;;;;;32.03;14.93;;;10.80;99.90;;;;;;5013495;28;20187;-80